Scruggs, Virginia
Current Conditions -  °F | °C
As of 2:54 AM on Monday 24 Nov 2014 (Local Time) from KROA Reporting Station
Overcast Overcast  
Wind Chill: 51°   Ceiling: 300
Heat Index: 51°   Visibility: 10mi
Dew Point: 50°   Wind: 7mph
Humidity: 96%   Direction: 50°NE
Pressure: 29.69"   Gusts: NA
Location:  37.2404°N, 79.6336°W
Report Text: KROA 240754Z 05006KT 10SM OVC003 11/10 A2969 RMK AO2 SLP052 T01060100
Loading
Personal Weather Stations






























Interactive Weather Map New forecast layout! Learn more

10-Day Weather Forecast

Advertisements
Track Severe Weather on mobile